EHBK/MST METAR and TAF weather

Enter ICAO airport designator
Station Type Date Time Source
EHBK METAR 2021/09/28 04:55 UTC NOAA

EHBK 280455Z AUTO 20009KT 9999 NSC 10/09 Q1023 NOSIG


Station Type Date Time Source
EHBK Decoded METAR 2021/09/28 04:55 UTC NOAA

Maastricht Airport Zuid Limburg, Netherlands (EHBK) 50-55N 005-47E 116M
Sep 28, 2021 - 12:55 AM EDT / 2021.09.28 0455 UTC
Wind: from the SSW (200 degrees) at 10 MPH (9 KT):0
Visibility: greater than 7 mile(s):0
Temperature: 50 F (10 C)
Dew Point: 48 F (9 C)
Relative Humidity: 93%
Pressure (altimeter): 30.21 in. Hg (1023 hPa)
ob: EHBK 280455Z AUTO 20009KT 9999 NSC 10/09 Q1023 NOSIG
cycle: 5

Station Type Date Time Source
EHBK TAF 2021/09/27 18:27 UTC NOAA

TAF TAF EHBK 271712Z 2718/2824 20007KT 9999 FEW040

Example: see airport list